Time;durP1;ratioP1;P1;durP2;ratioP2;P2;SDS_P1;SDS_P2;PMS_P1;PMS_P2;Temp;Humidity;BMP_temperature;BMP_pressure;BME280_temperature;BME280_humidity;BME280_pressure;Samples;Min_cycle;Max_cycle;Signal;HPM_P1;HPM_P2
2023/08/09 00:01:57;;;;;;;9.37;4.43;;;;;;;;;;5052170;28;20052;-68
2023/08/09 00:04:22;;;;;;;10.07;4.97;;;;;;;;;;5051583;28;20045;-65
2023/08/09 00:06:47;;;;;;;12.57;4.90;;;;;;;;;;5051771;28;20036;-65
2023/08/09 00:09:12;;;;;;;10.80;4.97;;;;;;;;;;5051687;28;20413;-65
2023/08/09 00:11:38;;;;;;;11.27;5.40;;;;;;;;;;5051728;28;20032;-66
2023/08/09 00:14:03;;;;;;;12.43;5.90;;;;;;;;;;5052147;28;20017;-66
2023/08/09 00:16:28;;;;;;;14.00;5.83;;;;;;;;;;5051342;28;20033;-65
2023/08/09 00:18:54;;;;;;;12.30;5.70;;;;;;;;;;5051186;28;20095;-67
2023/08/09 00:21:19;;;;;;;12.90;5.67;;;;;;;;;;5050659;28;20052;-65
2023/08/09 00:23:44;;;;;;;14.37;5.67;;;;;;;;;;5050678;28;20074;-65
2023/08/09 00:26:10;;;;;;;12.47;6.00;;;;;;;;;;5051087;28;20032;-66
2023/08/09 00:28:35;;;;;;;18.70;7.03;;;;;;;;;;5051573;28;20031;-65
2023/08/09 00:31:00;;;;;;;15.87;6.83;;;;;;;;;;5051618;28;20431;-66
2023/08/09 00:33:26;;;;;;;10.97;6.17;;;;;;;;;;5051813;28;20033;-65
2023/08/09 00:35:51;;;;;;;12.17;6.90;;;;;;;;;;5051705;28;20377;-65
2023/08/09 00:38:17;;;;;;;16.07;6.93;;;;;;;;;;5049929;28;20029;-66
2023/08/09 00:40:42;;;;;;;14.00;6.77;;;;;;;;;;5050454;28;20025;-65
2023/08/09 00:43:07;;;;;;;15.57;6.80;;;;;;;;;;5050326;28;20047;-65
2023/08/09 00:45:33;;;;;;;15.10;7.00;;;;;;;;;;5049795;28;20377;-66
2023/08/09 00:48:00;;;;;;;14.60;7.00;;;;;;;;;;5050487;28;20024;-65
2023/08/09 00:50:25;;;;;;;14.93;7.13;;;;;;;;;;5050955;28;20021;-65
2023/08/09 00:52:50;;;;;;;11.00;6.17;;;;;;;;;;5051637;28;20036;-66
2023/08/09 00:55:15;;;;;;;15.20;7.53;;;;;;;;;;5049942;28;20017;-66
2023/08/09 00:57:41;;;;;;;14.50;7.40;;;;;;;;;;5051431;28;20065;-65
2023/08/09 01:03:09;;;;;;;17.07;8.50;;;;;;;;;;5054476;28;20703;-67
2023/08/09 01:05:57;;;;;;;16.97;8.33;;;;;;;;;;5056291;28;20048;-68
2023/08/09 01:08:26;;;;;;;16.63;8.13;;;;;;;;;;5039113;28;20025;-67
2023/08/09 01:11:11;;;;;;;14.67;8.77;;;;;;;;;;5051534;28;20071;-67
2023/08/09 01:13:38;;;;;;;15.93;8.63;;;;;;;;;;5051202;28;20025;-67
2023/08/09 01:16:05;;;;;;;20.03;9.00;;;;;;;;;;5051088;28;20150;-67
2023/08/09 01:18:30;;;;;;;17.23;9.70;;;;;;;;;;5050734;28;20036;-67
2023/08/09 01:20:56;;;;;;;18.80;9.73;;;;;;;;;;5055260;28;20099;-67
2023/08/09 01:23:21;;;;;;;18.47;9.30;;;;;;;;;;5050938;28;20009;-67
2023/08/09 01:25:46;;;;;;;18.80;10.70;;;;;;;;;;5048901;28;20025;-67
2023/08/09 01:28:14;;;;;;;19.73;10.53;;;;;;;;;;5050548;28;20036;-67
2023/08/09 01:30:39;;;;;;;19.40;10.93;;;;;;;;;;5033201;28;20533;-67
2023/08/09 01:33:05;;;;;;;19.93;11.03;;;;;;;;;;5051645;28;20096;-67
2023/08/09 01:35:34;;;;;;;21.47;11.57;;;;;;;;;;5051804;28;20009;-67
2023/08/09 01:38:03;;;;;;;21.83;11.17;;;;;;;;;;5049047;28;20485;-67
2023/08/09 01:40:29;;;;;;;22.00;11.90;;;;;;;;;;5047502;28;20032;-67
2023/08/09 01:42:55;;;;;;;22.10;12.13;;;;;;;;;;5049478;28;20427;-67
2023/08/09 01:45:20;;;;;;;22.50;11.57;;;;;;;;;;5050609;28;20017;-67
2023/08/09 01:47:45;;;;;;;20.30;11.53;;;;;;;;;;5052354;28;20092;-67
2023/08/09 01:50:18;;;;;;;24.10;13.30;;;;;;;;;;5051636;28;20020;-67
2023/08/09 01:52:43;;;;;;;27.83;12.73;;;;;;;;;;5049458;28;20037;-67
2023/08/09 01:55:09;;;;;;;26.93;13.63;;;;;;;;;;5051328;28;20033;-67
2023/08/09 01:57:34;;;;;;;28.13;14.67;;;;;;;;;;5049835;28;20056;-68
2023/08/09 01:59:59;;;;;;;25.33;13.47;;;;;;;;;;5052072;28;20102;-67
2023/08/09 02:02:24;;;;;;;25.97;14.13;;;;;;;;;;5035879;28;20159;-67
2023/08/09 02:04:49;;;;;;;25.47;12.80;;;;;;;;;;5052556;28;20037;-67
2023/08/09 02:07:15;;;;;;;27.27;13.63;;;;;;;;;;5054907;28;20033;-67
2023/08/09 02:09:40;;;;;;;25.87;14.33;;;;;;;;;;5053519;28;20411;-67
2023/08/09 02:12:05;;;;;;;24.13;13.73;;;;;;;;;;5054430;28;20029;-67
2023/08/09 02:14:31;;;;;;;28.70;14.23;;;;;;;;;;5054878;28;20093;-67
2023/08/09 02:16:56;;;;;;;26.90;14.63;;;;;;;;;;5054536;28;20373;-67
2023/08/09 02:19:21;;;;;;;28.77;14.37;;;;;;;;;;5054276;28;20098;-67
2023/08/09 02:21:46;;;;;;;26.57;12.97;;;;;;;;;;5055100;28;20009;-67
2023/08/09 02:24:12;;;;;;;31.00;14.33;;;;;;;;;;5053818;28;20017;-67
2023/08/09 02:26:42;;;;;;;28.10;15.53;;;;;;;;;;5052720;28;20108;-67
2023/08/09 02:29:08;;;;;;;28.57;15.77;;;;;;;;;;5053711;28;20020;-67
2023/08/09 02:31:33;;;;;;;28.53;16.07;;;;;;;;;;5054504;28;20100;-67
2023/08/09 02:33:59;;;;;;;35.53;16.53;;;;;;;;;;5054164;28;20104;-66
2023/08/09 02:36:24;;;;;;;32.90;16.93;;;;;;;;;;5054068;28;20095;-67
2023/08/09 02:38:49;;;;;;;37.87;17.33;;;;;;;;;;5053331;28;20138;-67
2023/08/09 02:41:15;;;;;;;35.47;17.60;;;;;;;;;;5054076;28;20074;-67
2023/08/09 02:43:40;;;;;;;37.87;17.53;;;;;;;;;;5052876;28;20045;-67
2023/08/09 02:46:05;;;;;;;37.83;17.97;;;;;;;;;;5054101;28;20422;-67
2023/08/09 02:48:30;;;;;;;36.87;17.70;;;;;;;;;;5053884;28;20052;-67
2023/08/09 02:50:56;;;;;;;36.77;17.70;;;;;;;;;;5053717;28;20013;-67
2023/08/09 02:53:25;;;;;;;38.97;17.90;;;;;;;;;;5054009;28;20020;-67
2023/08/09 02:55:50;;;;;;;40.83;19.33;;;;;;;;;;5053167;28;20017;-67
2023/08/09 02:58:16;;;;;;;40.30;18.10;;;;;;;;;;5052630;28;20057;-67
2023/08/09 03:00:41;;;;;;;41.57;18.87;;;;;;;;;;5051493;28;20029;-67
2023/08/09 03:03:06;;;;;;;45.63;18.73;;;;;;;;;;5053449;28;20520;-67
2023/08/09 03:05:32;;;;;;;43.37;19.27;;;;;;;;;;5053009;28;20028;-67
2023/08/09 03:07:57;;;;;;;41.17;19.27;;;;;;;;;;5053587;28;20017;-67
2023/08/09 03:10:22;;;;;;;39.63;18.53;;;;;;;;;;5053026;28;20096;-67
2023/08/09 03:12:48;;;;;;;48.90;20.67;;;;;;;;;;5053435;28;20017;-67
2023/08/09 03:15:15;;;;;;;42.83;18.97;;;;;;;;;;5053410;28;20155;-67
2023/08/09 03:17:41;;;;;;;39.33;17.93;;;;;;;;;;5052666;28;20060;-67
2023/08/09 03:20:12;;;;;;;46.10;20.73;;;;;;;;;;5052490;28;20021;-67
2023/08/09 03:22:38;;;;;;;43.92;19.02;;;;;;;;;;5051545;28;20469;-66
2023/08/09 03:25:04;;;;;;;41.40;18.70;;;;;;;;;;5051704;28;20027;-65
2023/08/09 03:27:29;;;;;;;48.70;18.53;;;;;;;;;;5052617;28;20033;-65
2023/08/09 03:29:55;;;;;;;43.73;19.93;;;;;;;;;;5054995;28;20033;-65
2023/08/09 03:32:20;;;;;;;45.50;19.27;;;;;;;;;;5064020;28;20021;-64
2023/08/09 03:34:45;;;;;;;46.27;19.07;;;;;;;;;;5074082;28;20032;-64
2023/08/09 03:37:10;;;;;;;51.10;19.53;;;;;;;;;;5074667;28;20028;-63
2023/08/09 03:39:36;;;;;;;46.83;20.40;;;;;;;;;;5073394;28;20017;-64
2023/08/09 03:42:01;;;;;;;43.47;19.00;;;;;;;;;;5073046;28;20005;-64
2023/08/09 03:44:26;;;;;;;46.50;20.93;;;;;;;;;;5075730;28;20081;-66
2023/08/09 03:46:51;;;;;;;43.27;19.03;;;;;;;;;;5073073;28;20484;-66
2023/08/09 03:49:17;;;;;;;48.83;19.93;;;;;;;;;;5070990;28;20701;-66
2023/08/09 03:51:42;;;;;;;49.63;19.97;;;;;;;;;;5072325;28;20072;-69
2023/08/09 03:54:07;;;;;;;47.13;19.87;;;;;;;;;;5072939;28;20032;-67
2023/08/09 03:56:32;;;;;;;46.90;20.10;;;;;;;;;;5072041;28;20025;-67
2023/08/09 03:58:58;;;;;;;44.30;20.07;;;;;;;;;;5072813;28;20028;-64
2023/08/09 04:01:23;;;;;;;46.77;19.67;;;;;;;;;;5071391;28;20021;-66
2023/08/09 04:03:48;;;;;;;46.90;18.63;;;;;;;;;;5075097;28;20041;-63
2023/08/09 04:06:14;;;;;;;48.50;19.10;;;;;;;;;;5072874;28;20024;-67
2023/08/09 04:08:39;;;;;;;50.40;20.07;;;;;;;;;;5074741;28;20100;-64
2023/08/09 04:11:04;;;;;;;51.77;20.37;;;;;;;;;;5072981;28;20021;-66
2023/08/09 04:13:30;;;;;;;45.10;18.40;;;;;;;;;;5072671;28;20033;-66
2023/08/09 04:15:55;;;;;;;46.13;18.23;;;;;;;;;;5072817;28;20036;-67
2023/08/09 04:18:20;;;;;;;46.47;17.97;;;;;;;;;;5072312;28;20028;-65
2023/08/09 04:20:46;;;;;;;43.93;18.67;;;;;;;;;;5074493;28;20009;-65
2023/08/09 04:23:12;;;;;;;46.43;19.43;;;;;;;;;;5072575;28;20025;-63
2023/08/09 04:25:37;;;;;;;43.93;18.40;;;;;;;;;;5072510;28;20092;-63
2023/08/09 04:28:03;;;;;;;44.87;18.90;;;;;;;;;;5073818;28;20059;-66
2023/08/09 04:30:28;;;;;;;41.27;16.83;;;;;;;;;;5069120;28;20013;-64
2023/08/09 04:32:53;;;;;;;41.10;18.77;;;;;;;;;;5067566;28;20031;-64
2023/08/09 04:35:18;;;;;;;37.50;17.50;;;;;;;;;;5063364;28;20227;-68
2023/08/09 04:37:44;;;;;;;39.07;17.17;;;;;;;;;;5051512;28;20542;-68
2023/08/09 04:40:10;;;;;;;39.47;17.13;;;;;;;;;;5052375;28;20385;-68
2023/08/09 04:42:37;;;;;;;37.23;17.47;;;;;;;;;;5032236;28;20021;-68
2023/08/09 04:45:03;;;;;;;34.93;16.57;;;;;;;;;;5050088;28;20104;-68
2023/08/09 04:47:28;;;;;;;33.47;15.23;;;;;;;;;;5049960;28;20108;-68
2023/08/09 04:49:53;;;;;;;37.00;17.97;;;;;;;;;;5051870;28;20013;-67
2023/08/09 04:52:18;;;;;;;34.23;15.80;;;;;;;;;;5051060;28;20057;-68
2023/08/09 04:54:43;;;;;;;33.73;15.50;;;;;;;;;;5050120;28;20017;-67
2023/08/09 04:57:09;;;;;;;34.07;16.60;;;;;;;;;;5050829;28;20036;-68
2023/08/09 04:59:34;;;;;;;41.50;17.43;;;;;;;;;;5050624;28;20028;-68
2023/08/09 05:01:59;;;;;;;31.53;16.40;;;;;;;;;;5050942;28;20025;-67
2023/08/09 05:04:24;;;;;;;29.03;14.30;;;;;;;;;;5050974;28;20183;-68
2023/08/09 05:06:50;;;;;;;32.13;16.53;;;;;;;;;;5051565;28;20048;-67
2023/08/09 05:09:16;;;;;;;29.33;15.27;;;;;;;;;;5051683;28;20412;-68
2023/08/09 05:11:42;;;;;;;34.83;17.30;;;;;;;;;;5050331;28;20024;-67
2023/08/09 05:14:07;;;;;;;32.67;17.07;;;;;;;;;;5048230;28;20104;-68
2023/08/09 05:16:32;;;;;;;33.40;17.33;;;;;;;;;;5047555;28;20084;-67
2023/08/09 05:18:58;;;;;;;30.07;16.77;;;;;;;;;;5045955;28;20059;-67
2023/08/09 05:21:23;;;;;;;27.53;15.30;;;;;;;;;;5051938;28;20457;-67
2023/08/09 05:23:48;;;;;;;26.47;15.57;;;;;;;;;;5051444;28;20369;-66
2023/08/09 05:26:13;;;;;;;24.23;12.80;;;;;;;;;;5051359;28;20024;-66
2023/08/09 05:28:39;;;;;;;23.43;13.30;;;;;;;;;;5050054;28;20111;-66
2023/08/09 05:31:04;;;;;;;25.53;13.87;;;;;;;;;;5051471;28;20055;-66
2023/08/09 05:33:29;;;;;;;24.73;13.63;;;;;;;;;;5052520;28;20123;-67
2023/08/09 05:35:55;;;;;;;23.87;14.87;;;;;;;;;;5055388;28;20027;-67
2023/08/09 05:38:20;;;;;;;29.80;14.67;;;;;;;;;;5051384;28;20116;-67
2023/08/09 05:40:45;;;;;;;26.83;13.40;;;;;;;;;;5053333;28;20096;-66
2023/08/09 05:43:11;;;;;;;21.70;12.53;;;;;;;;;;5054585;28;20082;-65
2023/08/09 05:45:36;;;;;;;21.70;11.90;;;;;;;;;;5056988;28;20028;-64
2023/08/09 05:48:02;;;;;;;17.73;10.13;;;;;;;;;;5054854;28;20029;-65
2023/08/09 05:50:27;;;;;;;18.08;10.63;;;;;;;;;;5055176;28;20104;-64
2023/08/09 05:52:54;;;;;;;18.35;10.45;;;;;;;;;;5056177;28;20032;-64
2023/08/09 05:55:19;;;;;;;19.48;10.82;;;;;;;;;;5055978;28;20024;-65
2023/08/09 05:57:44;;;;;;;17.85;11.55;;;;;;;;;;5056008;28;20389;-64
2023/08/09 06:00:15;;;;;;;17.58;10.93;;;;;;;;;;5056326;28;20103;-64
2023/08/09 06:02:40;;;;;;;16.92;11.00;;;;;;;;;;5056217;28;20017;-64
2023/08/09 06:05:06;;;;;;;17.13;10.00;;;;;;;;;;5055559;28;20657;-66
2023/08/09 06:07:31;;;;;;;16.75;9.82;;;;;;;;;;5054720;28;20029;-61
2023/08/09 06:09:56;;;;;;;15.10;9.15;;;;;;;;;;5054532;28;20028;-60
2023/08/09 06:12:21;;;;;;;15.15;9.15;;;;;;;;;;5055123;28;20013;-60
2023/08/09 06:14:47;;;;;;;13.00;9.10;;;;;;;;;;5054681;28;20103;-61
2023/08/09 06:17:12;;;;;;;13.07;8.57;;;;;;;;;;5054372;28;20040;-60
2023/08/09 06:19:37;;;;;;;12.80;7.78;;;;;;;;;;5054333;28;20021;-61
2023/08/09 06:22:03;;;;;;;12.27;7.57;;;;;;;;;;5054137;28;20047;-61
2023/08/09 06:24:29;;;;;;;13.35;7.63;;;;;;;;;;5054442;28;20025;-60
2023/08/09 06:26:55;;;;;;;12.25;7.22;;;;;;;;;;5054223;28;20393;-60
2023/08/09 06:29:20;;;;;;;12.55;7.50;;;;;;;;;;5054144;28;20032;-59
2023/08/09 06:31:45;;;;;;;18.23;7.78;;;;;;;;;;5054208;28;20110;-59
2023/08/09 06:34:11;;;;;;;9.98;6.03;;;;;;;;;;5054300;28;20028;-60
2023/08/09 06:36:36;;;;;;;11.32;6.28;;;;;;;;;;5053887;28;20128;-60
2023/08/09 06:39:01;;;;;;;10.70;6.47;;;;;;;;;;5054267;28;20017;-60
2023/08/09 06:41:26;;;;;;;10.07;6.80;;;;;;;;;;5054067;28;20017;-60
2023/08/09 06:43:52;;;;;;;12.15;6.05;;;;;;;;;;5053617;28;20021;-60
2023/08/09 06:46:17;;;;;;;11.57;6.63;;;;;;;;;;5052828;28;20028;-60
2023/08/09 06:48:42;;;;;;;12.80;6.90;;;;;;;;;;5054185;28;20025;-60
2023/08/09 06:51:07;;;;;;;10.13;6.40;;;;;;;;;;5054102;28;20052;-60
2023/08/09 06:53:33;;;;;;;10.52;6.00;;;;;;;;;;5053759;28;20017;-60
2023/08/09 06:55:58;;;;;;;10.18;5.95;;;;;;;;;;5053720;28;20044;-63
2023/08/09 06:58:24;;;;;;;9.38;5.47;;;;;;;;;;5053729;28;20037;-65
2023/08/09 07:00:49;;;;;;;8.18;5.43;;;;;;;;;;5053623;28;20396;-65
2023/08/09 07:03:14;;;;;;;11.60;5.80;;;;;;;;;;5053506;28;20023;-65
2023/08/09 07:05:40;;;;;;;9.63;5.55;;;;;;;;;;5038059;28;20384;-65
2023/08/09 07:08:05;;;;;;;8.20;4.80;;;;;;;;;;5053568;28;20029;-65
2023/08/09 07:10:31;;;;;;;7.70;4.60;;;;;;;;;;5053313;28;20365;-64
2023/08/09 07:12:56;;;;;;;7.65;4.60;;;;;;;;;;5053753;28;20044;-64
2023/08/09 07:15:21;;;;;;;8.68;5.00;;;;;;;;;;5053463;28;20024;-64
2023/08/09 07:17:47;;;;;;;9.07;4.50;;;;;;;;;;5053474;28;20032;-65
2023/08/09 07:20:14;;;;;;;8.90;3.80;;;;;;;;;;5053470;28;20015;-65
2023/08/09 07:22:39;;;;;;;10.68;4.32;;;;;;;;;;5053158;28;20020;-64
2023/08/09 07:25:05;;;;;;;7.28;3.85;;;;;;;;;;5053004;28;20025;-65
2023/08/09 07:27:32;;;;;;;6.97;3.58;;;;;;;;;;5053439;28;20526;-64
2023/08/09 07:29:58;;;;;;;6.28;3.15;;;;;;;;;;5053132;28;20021;-65
2023/08/09 07:32:23;;;;;;;7.50;3.40;;;;;;;;;;5053237;28;20066;-64
2023/08/09 07:34:49;;;;;;;6.18;3.00;;;;;;;;;;5055747;28;20475;-64
2023/08/09 07:37:14;;;;;;;6.60;3.00;;;;;;;;;;5053084;28;20428;-64
2023/08/09 07:39:39;;;;;;;6.22;2.40;;;;;;;;;;5052767;28;20024;-63
2023/08/09 07:42:05;;;;;;;7.10;2.83;;;;;;;;;;5053087;28;20013;-65
2023/08/09 07:44:30;;;;;;;5.90;2.60;;;;;;;;;;5052917;28;20381;-64
2023/08/09 07:46:55;;;;;;;5.95;2.42;;;;;;;;;;5052947;28;20104;-65
2023/08/09 07:49:20;;;;;;;5.97;2.10;;;;;;;;;;5056559;28;20024;-64
2023/08/09 07:51:46;;;;;;;5.60;2.13;;;;;;;;;;5052713;28;20078;-65
2023/08/09 07:54:11;;;;;;;5.63;2.10;;;;;;;;;;5052647;28;20029;-64
2023/08/09 07:56:36;;;;;;;4.53;1.65;;;;;;;;;;5052133;28;20083;-65
2023/08/09 07:59:02;;;;;;;5.22;1.75;;;;;;;;;;5052452;28;20029;-65
2023/08/09 08:01:27;;;;;;;6.22;2.00;;;;;;;;;;5048655;28;20064;-64
2023/08/09 08:03:52;;;;;;;4.22;1.40;;;;;;;;;;5051870;28;20043;-64
2023/08/09 08:06:20;;;;;;;3.20;1.30;;;;;;;;;;5052716;28;20358;-62
2023/08/09 08:08:46;;;;;;;6.28;1.50;;;;;;;;;;5052321;28;20013;-59
2023/08/09 08:11:11;;;;;;;2.75;1.17;;;;;;;;;;5052433;28;20457;-59
2023/08/09 08:13:37;;;;;;;4.60;1.20;;;;;;;;;;5051287;28;20013;-60
2023/08/09 08:16:04;;;;;;;3.55;1.00;;;;;;;;;;5052505;28;20017;-59
2023/08/09 08:18:29;;;;;;;3.53;1.17;;;;;;;;;;5052218;28;20078;-60
2023/08/09 08:20:55;;;;;;;3.60;1.23;;;;;;;;;;5052027;28;20408;-60
2023/08/09 08:23:20;;;;;;;3.78;1.20;;;;;;;;;;5051930;28;20049;-59
2023/08/09 08:25:45;;;;;;;2.92;1.10;;;;;;;;;;5052212;28;20047;-59
2023/08/09 08:28:10;;;;;;;2.95;1.02;;;;;;;;;;5051978;28;20025;-59
2023/08/09 08:30:36;;;;;;;3.22;1.02;;;;;;;;;;5052253;28;20024;-59
2023/08/09 08:33:02;;;;;;;2.47;1.00;;;;;;;;;;5052320;28;20044;-63
2023/08/09 08:35:33;;;;;;;3.17;1.00;;;;;;;;;;5051939;28;20025;-64
2023/08/09 08:37:59;;;;;;;3.70;1.20;;;;;;;;;;5050958;28;20020;-63
2023/08/09 08:40:25;;;;;;;5.20;1.40;;;;;;;;;;5052034;28;20021;-64
2023/08/09 08:42:50;;;;;;;4.97;1.10;;;;;;;;;;5052042;28;20469;-64
2023/08/09 08:45:16;;;;;;;3.17;1.10;;;;;;;;;;5052000;28;20024;-64
2023/08/09 08:47:42;;;;;;;2.95;1.10;;;;;;;;;;5052039;28;20040;-64
2023/08/09 08:50:08;;;;;;;4.53;1.10;;;;;;;;;;5052012;28;20024;-64
2023/08/09 08:52:36;;;;;;;4.53;1.10;;;;;;;;;;5051256;28;20017;-64
2023/08/09 08:55:02;;;;;;;4.57;0.85;;;;;;;;;;5051602;28;20025;-63
2023/08/09 08:57:28;;;;;;;2.63;0.80;;;;;;;;;;5051487;28;20380;-64
2023/08/09 08:59:53;;;;;;;3.50;0.95;;;;;;;;;;5051900;28;20087;-64
2023/08/09 09:02:19;;;;;;;3.00;0.82;;;;;;;;;;5051516;28;20025;-64
2023/08/09 09:04:44;;;;;;;3.65;0.88;;;;;;;;;;5050878;28;20045;-64
2023/08/09 09:07:10;;;;;;;4.07;0.95;;;;;;;;;;5051952;28;20020;-64
2023/08/09 09:09:42;;;;;;;2.33;0.60;;;;;;;;;;5053671;28;20017;-63
2023/08/09 09:12:08;;;;;;;3.40;0.90;;;;;;;;;;5057470;28;20017;-63
2023/08/09 09:14:33;;;;;;;4.38;0.90;;;;;;;;;;5055928;28;20062;-63
2023/08/09 09:16:58;;;;;;;2.83;0.80;;;;;;;;;;5055531;28;20369;-64
2023/08/09 09:19:24;;;;;;;4.88;0.98;;;;;;;;;;5055486;28;20427;-64
2023/08/09 09:21:49;;;;;;;3.30;1.00;;;;;;;;;;5055683;28;20021;-59
2023/08/09 09:24:14;;;;;;;3.47;0.90;;;;;;;;;;5055485;28;20060;-60
2023/08/09 09:26:40;;;;;;;4.22;0.90;;;;;;;;;;5055686;28;20025;-59
2023/08/09 09:29:06;;;;;;;4.15;0.98;;;;;;;;;;5055536;28;20033;-59
2023/08/09 09:31:36;;;;;;;2.50;0.70;;;;;;;;;;5054947;28;20013;-60
2023/08/09 09:34:03;;;;;;;2.03;0.67;;;;;;;;;;5055679;28;20527;-59
2023/08/09 09:36:28;;;;;;;2.75;0.70;;;;;;;;;;5055040;28;20027;-60
2023/08/09 09:38:53;;;;;;;2.80;0.90;;;;;;;;;;5055061;28;20021;-60
2023/08/09 09:41:20;;;;;;;2.38;0.80;;;;;;;;;;5057320;28;20021;-59
2023/08/09 09:43:47;;;;;;;2.50;0.70;;;;;;;;;;5055150;28;20389;-59
2023/08/09 09:46:23;;;;;;;2.95;0.82;;;;;;;;;;5053218;28;20028;-59
2023/08/09 09:48:49;;;;;;;2.53;0.85;;;;;;;;;;5056011;28;20100;-59
2023/08/09 09:51:16;;;;;;;3.28;0.90;;;;;;;;;;5057023;28;20016;-60
2023/08/09 09:53:42;;;;;;;3.30;0.80;;;;;;;;;;5054897;28;20045;-59
2023/08/09 09:56:07;;;;;;;1.73;0.55;;;;;;;;;;5054807;28;20059;-59
2023/08/09 09:58:32;;;;;;;1.70;0.70;;;;;;;;;;5055018;28;20021;-60
2023/08/09 10:00:58;;;;;;;2.17;0.90;;;;;;;;;;5055046;28;20100;-60
2023/08/09 10:03:23;;;;;;;2.55;0.70;;;;;;;;;;5054782;28;20064;-59
2023/08/09 10:05:49;;;;;;;1.63;0.60;;;;;;;;;;5054483;28;20013;-58
2023/08/09 10:08:16;;;;;;;3.83;0.60;;;;;;;;;;5054536;28;20028;-60
2023/08/09 10:10:43;;;;;;;2.65;0.70;;;;;;;;;;5054902;28;20017;-59
2023/08/09 10:13:09;;;;;;;2.90;0.65;;;;;;;;;;5054770;28;20035;-60
2023/08/09 10:15:37;;;;;;;2.35;0.70;;;;;;;;;;5054605;28;20035;-62
2023/08/09 10:18:04;;;;;;;2.88;0.70;;;;;;;;;;5054321;28;20385;-62
2023/08/09 10:20:30;;;;;;;2.35;0.70;;;;;;;;;;5053950;28;20028;-62
2023/08/09 10:22:58;;;;;;;2.28;0.73;;;;;;;;;;5054072;28;20481;-61
2023/08/09 10:25:50;;;;;;;1.75;0.70;;;;;;;;;;5054113;28;20021;-60
2023/08/09 10:28:15;;;;;;;2.38;0.77;;;;;;;;;;5051595;28;20400;-61
2023/08/09 10:30:44;;;;;;;2.17;0.75;;;;;;;;;;5054185;28;20036;-61
2023/08/09 10:33:09;;;;;;;1.52;0.70;;;;;;;;;;5054301;28;20079;-60
2023/08/09 10:35:51;;;;;;;1.27;0.55;;;;;;;;;;5054476;28;20075;-62
2023/08/09 10:38:20;;;;;;;2.63;0.80;;;;;;;;;;5052102;28;20021;-61
2023/08/09 10:40:50;;;;;;;3.58;0.90;;;;;;;;;;5053890;28;20021;-62
2023/08/09 10:43:20;;;;;;;1.75;0.50;;;;;;;;;;5050519;28;20021;-62
2023/08/09 10:45:46;;;;;;;2.47;0.77;;;;;;;;;;5053997;28;20467;-62
2023/08/09 10:48:27;;;;;;;3.13;0.60;;;;;;;;;;5054251;28;20041;-61
2023/08/09 10:51:07;;;;;;;2.58;0.80;;;;;;;;;;5054140;28;20028;-59
2023/08/09 10:53:55;;;;;;;2.17;0.70;;;;;;;;;;5054215;28;20366;-59
2023/08/09 10:56:34;;;;;;;1.67;0.60;;;;;;;;;;5053476;28;20112;-59
2023/08/09 10:59:07;;;;;;;1.70;0.60;;;;;;;;;;5054141;28;20067;-64
2023/08/09 11:01:33;;;;;;;2.15;0.73;;;;;;;;;;5053025;28;20017;-64
2023/08/09 11:03:59;;;;;;;2.50;0.70;;;;;;;;;;5053291;28;20037;-64
2023/08/09 11:06:31;;;;;;;2.33;0.77;;;;;;;;;;5053463;28;20031;-65
2023/08/09 11:09:04;;;;;;;1.73;0.57;;;;;;;;;;5053445;28;20017;-65
2023/08/09 11:11:30;;;;;;;3.00;0.70;;;;;;;;;;5053299;28;20067;-65
2023/08/09 11:13:55;;;;;;;2.55;0.73;;;;;;;;;;5053482;28;20021;-65
2023/08/09 11:16:21;;;;;;;1.52;0.68;;;;;;;;;;5053691;28;20479;-64
2023/08/09 11:18:46;;;;;;;2.15;0.68;;;;;;;;;;5057938;28;20020;-65
2023/08/09 11:21:11;;;;;;;2.33;0.70;;;;;;;;;;5053079;28;20025;-65
2023/08/09 11:23:36;;;;;;;4.03;0.70;;;;;;;;;;5053330;28;20013;-65
2023/08/09 11:26:02;;;;;;;3.45;0.77;;;;;;;;;;5053436;28;20056;-66
2023/08/09 11:28:29;;;;;;;3.38;0.70;;;;;;;;;;5035405;28;20036;-66
2023/08/09 11:30:54;;;;;;;2.45;0.70;;;;;;;;;;5053034;28;20021;-65
2023/08/09 11:33:19;;;;;;;2.08;0.75;;;;;;;;;;5052879;28;20031;-65
2023/08/09 11:35:45;;;;;;;5.22;0.90;;;;;;;;;;5052922;28;20036;-64
2023/08/09 11:38:13;;;;;;;3.13;0.90;;;;;;;;;;5053052;28;20067;-66
2023/08/09 11:40:39;;;;;;;3.22;0.80;;;;;;;;;;5053160;28;20359;-66
2023/08/09 11:43:09;;;;;;;2.92;0.80;;;;;;;;;;5055902;28;21338;-66
2023/08/09 11:45:42;;;;;;;3.03;0.85;;;;;;;;;;5052988;28;20457;-66
2023/08/09 11:48:08;;;;;;;1.60;0.57;;;;;;;;;;5052530;28;20035;-66
2023/08/09 11:50:33;;;;;;;3.40;0.80;;;;;;;;;;5053005;28;20013;-65
2023/08/09 11:52:58;;;;;;;1.48;0.60;;;;;;;;;;5060061;28;20013;-66
2023/08/09 11:55:24;;;;;;;2.80;0.52;;;;;;;;;;5052859;28;20113;-65
2023/08/09 11:57:50;;;;;;;3.40;0.82;;;;;;;;;;5053303;28;20492;-66
2023/08/09 12:00:15;;;;;;;2.50;0.75;;;;;;;;;;5053238;28;20009;-66
2023/08/09 12:02:41;;;;;;;2.58;0.70;;;;;;;;;;5052702;28;20009;-66
2023/08/09 12:05:15;;;;;;;2.75;0.65;;;;;;;;;;5052364;28;20517;-66
2023/08/09 12:07:41;;;;;;;2.28;0.70;;;;;;;;;;5052976;28;20508;-66
2023/08/09 12:10:10;;;;;;;2.28;0.57;;;;;;;;;;5052741;28;20017;-66
2023/08/09 12:12:37;;;;;;;1.85;0.60;;;;;;;;;;5052555;28;20457;-64
2023/08/09 12:15:02;;;;;;;1.63;0.50;;;;;;;;;;5052790;28;20465;-66
2023/08/09 12:17:28;;;;;;;8.02;1.35;;;;;;;;;;5052105;28;20025;-66
2023/08/09 12:19:55;;;;;;;2.03;0.80;;;;;;;;;;5052933;28;20028;-66
2023/08/09 12:22:21;;;;;;;1.70;0.65;;;;;;;;;;5052802;28;20020;-67
2023/08/09 12:24:46;;;;;;;3.70;0.82;;;;;;;;;;5052555;28;20013;-67
2023/08/09 12:27:14;;;;;;;2.05;0.70;;;;;;;;;;5052330;28;20400;-66
2023/08/09 12:29:40;;;;;;;2.13;0.60;;;;;;;;;;5049074;28;20622;-66
2023/08/09 12:32:06;;;;;;;2.78;0.80;;;;;;;;;;5052710;28;20507;-65
2023/08/09 12:34:31;;;;;;;2.72;1.05;;;;;;;;;;5052571;28;20040;-65
2023/08/09 12:36:57;;;;;;;3.08;0.88;;;;;;;;;;5052462;28;20106;-66
2023/08/09 12:39:22;;;;;;;2.67;1.00;;;;;;;;;;5052479;28;20479;-65
2023/08/09 12:41:50;;;;;;;3.05;1.00;;;;;;;;;;5052265;28;20013;-66
2023/08/09 12:44:15;;;;;;;3.65;0.68;;;;;;;;;;5051287;28;20029;-66
2023/08/09 12:46:40;;;;;;;2.58;0.82;;;;;;;;;;5048613;28;20490;-65
2023/08/09 12:49:06;;;;;;;2.50;0.80;;;;;;;;;;5052173;28;20021;-66
2023/08/09 12:51:31;;;;;;;2.72;0.90;;;;;;;;;;5051789;28;20013;-66
2023/08/09 12:53:57;;;;;;;3.30;1.10;;;;;;;;;;5051827;28;20021;-66
2023/08/09 12:56:23;;;;;;;2.10;0.82;;;;;;;;;;5051304;28;20025;-66
2023/08/09 12:58:48;;;;;;;4.75;1.00;;;;;;;;;;5051869;28;20013;-66
2023/08/09 13:01:14;;;;;;;3.17;1.08;;;;;;;;;;5051740;28;20010;-66
2023/08/09 13:03:39;;;;;;;3.83;0.73;;;;;;;;;;5051722;28;20601;-67
2023/08/09 13:06:04;;;;;;;2.10;0.70;;;;;;;;;;5051525;28;20013;-67
2023/08/09 13:08:30;;;;;;;2.90;0.90;;;;;;;;;;5051715;28;20143;-67
2023/08/09 13:10:55;;;;;;;6.63;0.80;;;;;;;;;;5051698;28;20025;-68
2023/08/09 13:13:21;;;;;;;3.35;0.90;;;;;;;;;;5051361;28;20118;-68
2023/08/09 13:15:46;;;;;;;2.78;1.08;;;;;;;;;;5051818;28;20097;-68
2023/08/09 13:18:11;;;;;;;1.77;0.77;;;;;;;;;;5051434;28;20111;-68
2023/08/09 13:20:36;;;;;;;3.72;0.90;;;;;;;;;;5051766;28;20013;-67
2023/08/09 13:23:02;;;;;;;2.78;0.90;;;;;;;;;;5051505;28;20021;-67
2023/08/09 13:25:27;;;;;;;3.00;0.82;;;;;;;;;;5055230;28;20463;-67
2023/08/09 13:27:52;;;;;;;3.13;0.88;;;;;;;;;;5051081;28;20013;-66
2023/08/09 13:30:17;;;;;;;3.00;0.60;;;;;;;;;;5051730;28;20381;-67
2023/08/09 13:32:43;;;;;;;1.90;0.80;;;;;;;;;;5051349;28;20428;-67
2023/08/09 13:35:09;;;;;;;4.07;0.73;;;;;;;;;;5051599;28;20027;-67
2023/08/09 13:37:38;;;;;;;2.38;0.80;;;;;;;;;;5051486;28;20025;-67
2023/08/09 13:40:03;;;;;;;4.85;0.90;;;;;;;;;;5051465;28;20021;-67
2023/08/09 13:42:28;;;;;;;3.03;0.90;;;;;;;;;;5047516;28;20021;-67
2023/08/09 13:44:54;;;;;;;3.28;0.90;;;;;;;;;;5050945;28;20108;-67
2023/08/09 13:47:19;;;;;;;3.55;0.82;;;;;;;;;;5052858;28;20049;-67
2023/08/09 13:49:44;;;;;;;2.42;0.90;;;;;;;;;;5051614;28;20024;-68
2023/08/09 13:52:10;;;;;;;1.70;0.80;;;;;;;;;;5051358;28;20384;-67
2023/08/09 13:54:35;;;;;;;4.13;1.00;;;;;;;;;;5051554;28;20395;-68
2023/08/09 13:57:00;;;;;;;3.15;1.00;;;;;;;;;;5055154;28;20104;-65
2023/08/09 13:59:25;;;;;;;3.08;0.85;;;;;;;;;;5055117;28;20017;-65
2023/08/09 14:01:52;;;;;;;3.33;0.90;;;;;;;;;;5054809;28;20017;-66
2023/08/09 14:04:17;;;;;;;2.83;0.90;;;;;;;;;;5054300;28;20543;-65
2023/08/09 14:06:43;;;;;;;3.33;1.00;;;;;;;;;;5055094;28;20029;-65
2023/08/09 14:09:08;;;;;;;4.05;0.90;;;;;;;;;;5054650;28;20416;-66
2023/08/09 14:11:34;;;;;;;2.45;0.70;;;;;;;;;;5054463;28;20009;-65
2023/08/09 14:13:59;;;;;;;2.83;0.80;;;;;;;;;;5054917;28;20550;-64
2023/08/09 14:16:25;;;;;;;2.20;0.90;;;;;;;;;;5054446;28;20028;-66
2023/08/09 14:18:50;;;;;;;3.10;1.10;;;;;;;;;;5054886;28;20021;-65
2023/08/09 14:21:15;;;;;;;2.10;0.77;;;;;;;;;;5054394;28;20523;-68
2023/08/09 14:23:41;;;;;;;3.00;0.82;;;;;;;;;;5054427;28;20017;-68
2023/08/09 14:26:06;;;;;;;3.42;1.02;;;;;;;;;;5054698;28;20480;-68
2023/08/09 14:28:31;;;;;;;4.18;0.93;;;;;;;;;;5054598;28;20447;-67
2023/08/09 14:30:56;;;;;;;3.38;1.20;;;;;;;;;;5054762;28;20063;-66